Time;durP1;ratioP1;P1;durP2;ratioP2;P2;SDS_P1;SDS_P2;PMS_P1;PMS_P2;Temp;Humidity;BMP_temperature;BMP_pressure;BME280_temperature;BME280_humidity;BME280_pressure;Samples;Min_cycle;Max_cycle;Signal;HPM_P1;HPM_P2
2023/01/17 00:01:56;;;;;;;36.53;25.20;;;;;;;42.22;35.19;100968.06;4896306;29;20438;-83
2023/01/17 00:09:59;;;;;;;42.10;24.17;;;;;;;42.20;35.00;100954.78;4898004;29;20541;-87
2023/01/17 00:12:32;;;;;;;38.67;23.00;;;;;;;42.19;34.86;100953.19;4907323;29;20533;-84
2023/01/17 00:15:09;;;;;;;40.73;26.43;;;;;;;42.22;34.90;100957.97;4887801;29;20474;-87
2023/01/17 00:17:35;;;;;;;57.50;25.40;;;;;;;42.28;34.91;100947.66;4912294;29;20418;-85
2023/01/17 01:33:45;;;;;;;48.53;30.20;;;;;;;41.91;35.65;100919.41;4896524;29;20990;-85
2023/01/17 01:36:12;;;;;;;58.60;33.23;;;;;;;41.88;36.05;100922.81;4911201;29;20442;-84
2023/01/17 01:38:49;;;;;;;56.57;34.03;;;;;;;41.77;36.01;100917.75;4911359;29;20438;-88
2023/01/17 01:41:23;;;;;;;60.63;37.07;;;;;;;41.81;36.17;100923.34;4880548;29;20461;-86
2023/01/17 01:43:55;;;;;;;56.40;38.27;;;;;;;41.73;36.39;100924.16;4896947;29;20421;-86
2023/01/17 01:46:43;;;;;;;54.10;38.27;;;;;;;41.73;36.11;100922.22;4898072;29;20441;-88
2023/01/17 01:49:35;;;;;;;77.13;46.63;;;;;;;41.72;36.21;100914.41;4905184;29;20536;-87
2023/01/17 01:52:05;;;;;;;69.73;45.60;;;;;;;41.66;36.16;100908.34;4899579;29;20537;-89
2023/01/17 01:54:43;;;;;;;57.30;40.00;;;;;;;41.59;36.58;100916.25;4899878;29;20434;-87
2023/01/17 01:57:15;;;;;;;62.67;42.80;;;;;;;41.55;36.16;100913.38;4900238;29;20934;-90
2023/01/17 01:59:47;;;;;;;67.80;42.40;;;;;;;41.54;36.80;100908.25;4898669;29;20879;-84
2023/01/17 02:02:13;;;;;;;63.17;46.50;;;;;;;41.55;36.45;100901.69;4914401;29;20485;-84
2023/01/17 02:04:39;;;;;;;78.20;44.73;;;;;;;41.54;36.39;100900.88;4899233;29;20437;-86
2023/01/17 02:07:54;;;;;;;76.37;44.40;;;;;;;41.46;36.58;100899.03;4913154;29;20437;-87
2023/01/17 02:10:23;;;;;;;62.73;43.67;;;;;;;41.53;36.62;100903.94;4899264;29;20489;-87
2023/01/17 02:12:56;;;;;;;75.03;44.37;;;;;;;41.54;36.28;100892.72;4914511;29;20501;-86
2023/01/17 02:15:46;;;;;;;73.17;42.03;;;;;;;41.52;36.80;100908.59;4882851;29;20430;-87
2023/01/17 02:18:40;;;;;;;68.63;42.43;;;;;;;41.52;36.56;100902.34;4899340;29;21029;-88
2023/01/17 02:21:23;;;;;;;66.10;42.87;;;;;;;41.47;36.62;100902.53;4899355;29;20530;-88
2023/01/17 02:27:49;;;;;;;76.13;43.87;;;;;;;41.50;36.33;100904.63;4900526;29;20417;-86
2023/01/17 02:30:31;;;;;;;59.27;40.50;;;;;;;41.46;36.35;100903.69;4899706;29;20800;-87
2023/01/17 02:33:47;;;;;;;59.83;39.87;;;;;;;41.43;36.59;100894.22;4908732;29;20446;-87
2023/01/17 02:37:07;;;;;;;68.80;40.13;;;;;;;41.45;36.63;100891.19;4895939;29;20517;-89
2023/01/17 02:40:06;;;;;;;59.43;41.77;;;;;;;41.47;36.17;100888.94;4890582;29;20441;-87
2023/01/17 02:42:52;;;;;;;57.67;39.10;;;;;;;41.40;36.32;100886.72;4900135;29;20528;-87
2023/01/17 02:45:22;;;;;;;57.00;39.20;;;;;;;41.39;36.54;100890.59;4869047;29;20926;-87
2023/01/17 02:47:51;;;;;;;61.37;38.60;;;;;;;41.36;36.19;100876.81;4899927;29;20430;-88
2023/01/17 02:50:31;;;;;;;57.33;36.47;;;;;;;41.30;36.48;100884.34;4898876;29;20437;-88
2023/01/17 02:53:27;;;;;;;70.13;38.67;;;;;;;41.34;36.50;100890.78;4905668;29;20442;-87
2023/01/17 02:56:38;;;;;;;59.70;41.47;;;;;;;41.32;36.34;100888.38;4887100;29;20429;-88
2023/01/17 02:59:55;;;;;;;61.40;37.80;;;;;;;41.30;36.46;100881.63;4899187;29;20450;-88
2023/01/17 03:03:05;;;;;;;65.67;40.17;;;;;;;41.34;36.76;100880.69;4898673;29;20437;-88
2023/01/17 03:05:48;;;;;;;47.30;39.07;;;;;;;41.35;36.41;100886.91;4899084;29;20426;-88
2023/01/17 03:08:15;;;;;;;65.07;40.07;;;;;;;41.39;36.35;100884.34;4897498;29;20441;-87
2023/01/17 03:10:42;;;;;;;64.70;37.90;;;;;;;41.42;36.32;100884.47;4912857;29;21021;-91
2023/01/17 03:13:31;;;;;;;65.97;40.83;;;;;;;41.44;36.18;100878.72;4897944;29;20524;-87
2023/01/17 03:16:03;;;;;;;63.17;37.17;;;;;;;41.43;36.19;100887.97;4899591;29;20536;-88
2023/01/17 03:18:30;;;;;;;66.83;37.93;;;;;;;41.38;36.80;100885.47;4895946;29;20454;-87
2023/01/17 03:20:56;;;;;;;54.80;41.23;;;;;;;41.41;36.27;100880.16;4899394;29;20947;-88
2023/01/17 03:30:11;;;;;;;49.93;37.50;;;;;;;41.47;35.94;100881.56;4899663;29;20421;-88
2023/01/17 03:32:42;;;;;;;60.73;39.77;;;;;;;41.48;35.89;100876.91;4897452;29;20426;-88
2023/01/17 03:35:13;;;;;;;60.60;41.37;;;;;;;41.43;36.32;100872.44;4899406;29;20426;-87
2023/01/17 03:37:51;;;;;;;59.17;41.90;;;;;;;41.47;36.40;100875.31;4897157;29;20953;-86
2023/01/17 03:40:19;;;;;;;70.87;40.87;;;;;;;41.49;36.25;100881.22;4896918;29;20813;-87
2023/01/17 03:42:45;;;;;;;70.07;44.80;;;;;;;41.45;36.09;100883.03;4909681;29;20471;-82
2023/01/17 03:45:11;;;;;;;54.37;45.67;;;;;;;41.43;36.27;100882.53;4893418;29;20429;-82
2023/01/17 03:47:37;;;;;;;73.93;45.40;;;;;;;41.41;36.30;100879.38;4912874;29;20430;-84
2023/01/17 03:50:03;;;;;;;71.07;50.47;;;;;;;41.41;36.51;100887.53;4896524;29;20625;-84
2023/01/17 03:52:29;;;;;;;88.03;55.27;;;;;;;41.37;36.51;100884.66;4894448;29;20476;-84
2023/01/17 03:55:26;;;;;;;88.83;58.43;;;;;;;41.37;36.21;100883.88;4913229;29;20446;-88
2023/01/17 03:57:52;;;;;;;87.33;60.80;;;;;;;41.36;36.39;100879.53;4913272;29;20670;-88
2023/01/17 04:00:19;;;;;;;78.20;61.83;;;;;;;41.34;36.42;100879.88;4897398;29;20438;-86
2023/01/17 04:02:45;;;;;;;80.20;59.63;;;;;;;41.32;36.30;100887.56;4896486;29;20469;-84
2023/01/17 04:05:11;;;;;;;71.93;54.50;;;;;;;41.24;36.70;100878.28;4911690;29;20518;-83
2023/01/17 04:07:37;;;;;;;69.47;55.10;;;;;;;41.30;36.18;100879.69;4896505;29;20544;-84
2023/01/17 04:10:03;;;;;;;55.80;44.70;;;;;;;41.29;36.01;100882.75;4911699;29;20442;-87
2023/01/17 04:12:29;;;;;;;79.37;51.30;;;;;;;41.26;36.16;100880.72;4912499;29;20328;-90
2023/01/17 04:14:55;;;;;;;71.37;48.17;;;;;;;41.16;36.64;100881.09;4896948;29;20648;-92
2023/01/17 04:17:21;;;;;;;81.97;48.87;;;;;;;41.14;36.77;100883.34;4896874;29;20434;-91
2023/01/17 04:19:47;;;;;;;62.40;47.03;;;;;;;41.20;36.38;100891.00;4896239;29;20189;-84
2023/01/17 04:22:13;;;;;;;71.37;48.83;;;;;;;41.19;36.64;100889.41;4896383;29;20513;-84
2023/01/17 04:24:39;;;;;;;68.43;48.73;;;;;;;41.17;36.76;100882.66;4911569;29;20457;-83
2023/01/17 04:27:05;;;;;;;71.70;54.80;;;;;;;41.21;36.57;100889.84;4895981;29;20430;-84
2023/01/17 04:29:31;;;;;;;89.63;63.83;;;;;;;41.21;36.49;100891.78;4897602;29;20434;-83
2023/01/17 04:31:57;;;;;;;110.90;80.20;;;;;;;41.22;36.51;100891.44;4911526;29;20568;-83
2023/01/17 04:34:24;;;;;;;136.70;112.07;;;;;;;41.22;36.22;100890.66;4896582;29;20483;-86
2023/01/17 04:36:52;;;;;;;160.17;120.67;;;;;;;41.23;36.40;100890.31;4881374;29;20441;-92
2023/01/17 04:39:21;;;;;;;166.40;127.47;;;;;;;41.23;36.46;100894.97;4911162;29;20449;-87
2023/01/17 04:41:48;;;;;;;154.63;126.37;;;;;;;41.23;36.34;100892.25;4881624;29;20449;-86
2023/01/17 04:44:15;;;;;;;141.60;116.13;;;;;;;41.17;36.64;100891.63;4865967;29;20470;-86
2023/01/17 04:46:42;;;;;;;136.87;111.67;;;;;;;41.21;36.39;100891.78;4897297;29;20528;-87
2023/01/17 04:49:11;;;;;;;141.00;110.33;;;;;;;41.15;36.74;100884.94;4896687;29;20524;-87
2023/01/17 04:51:41;;;;;;;117.03;97.80;;;;;;;41.12;36.49;100882.84;4911855;29;20220;-89
2023/01/17 04:54:07;;;;;;;140.17;100.73;;;;;;;41.14;36.69;100886.84;4896554;29;20437;-87
2023/01/17 04:56:35;;;;;;;124.67;100.20;;;;;;;41.19;36.19;100891.28;4911754;29;20473;-86
2023/01/17 04:59:04;;;;;;;121.10;101.67;;;;;;;41.17;36.47;100888.09;4912299;29;20521;-85
2023/01/17 05:01:31;;;;;;;91.33;74.40;;;;;;;41.20;36.24;100888.28;4911435;29;20434;-86
2023/01/17 05:04:37;;;;;;;102.97;73.60;;;;;;;41.18;36.35;100893.22;4889975;29;20442;-92
2023/01/17 05:07:03;;;;;;;77.60;60.87;;;;;;;41.16;36.51;100890.03;4910333;29;20444;-91
2023/01/17 05:09:29;;;;;;;91.97;63.10;;;;;;;41.16;36.65;100890.03;4897809;29;20434;-91
2023/01/17 05:11:57;;;;;;;86.47;65.00;;;;;;;41.19;36.59;100892.13;4880710;29;20608;-93
2023/01/17 05:14:25;;;;;;;91.27;57.73;;;;;;;41.21;36.51;100894.50;4896122;29;20438;-83
2023/01/17 05:16:57;;;;;;;81.07;51.37;;;;;;;41.19;36.19;100900.28;4896296;29;20438;-87
2023/01/17 05:19:25;;;;;;;101.93;58.03;;;;;;;41.19;36.51;100892.13;4886731;29;20934;-92
2023/01/17 05:22:13;;;;;;;82.93;55.47;;;;;;;41.20;36.45;100891.00;4900378;29;20430;-91
2023/01/17 05:24:51;;;;;;;82.67;55.03;;;;;;;41.20;36.28;100898.34;4886333;29;20492;-91
2023/01/17 05:27:17;;;;;;;85.77;56.67;;;;;;;41.22;36.11;100907.78;4914119;29;20433;-86
2023/01/17 05:29:50;;;;;;;72.77;53.23;;;;;;;41.23;35.98;100903.13;4884667;29;20437;-90
2023/01/17 05:32:16;;;;;;;76.73;47.70;;;;;;;41.19;36.53;100908.44;4898825;29;20484;-84
2023/01/17 05:34:42;;;;;;;76.73;49.43;;;;;;;41.16;36.50;100911.81;4917249;29;20445;-86
2023/01/17 05:37:09;;;;;;;76.30;48.57;;;;;;;41.19;36.42;100913.06;4915682;29;20970;-86
2023/01/17 05:39:35;;;;;;;66.07;46.40;;;;;;;41.16;36.35;100911.81;4899266;29;20209;-83
2023/01/17 05:42:01;;;;;;;63.97;42.63;;;;;;;41.12;36.08;100913.59;4914526;29;20437;-83
2023/01/17 05:44:26;;;;;;;64.07;43.63;;;;;;;41.07;36.45;100925.47;4915021;29;20446;-87
2023/01/17 05:46:55;;;;;;;66.10;41.33;;;;;;;41.11;36.67;100925.59;4900367;29;20245;-92
2023/01/17 05:49:21;;;;;;;55.43;38.07;;;;;;;41.04;36.44;100926.09;4912754;29;20961;-84
2023/01/17 05:51:47;;;;;;;56.03;39.77;;;;;;;40.95;36.58;100930.00;4914491;29;21065;-88
2023/01/17 05:54:13;;;;;;;61.73;45.10;;;;;;;40.96;36.63;100939.75;4900928;29;20922;-93
2023/01/17 05:56:39;;;;;;;64.00;44.47;;;;;;;40.96;36.42;100934.31;4898432;29;20436;-87
2023/01/17 05:59:24;;;;;;;66.43;44.40;;;;;;;40.87;36.51;100937.00;4900181;29;20462;-91
2023/01/17 06:01:50;;;;;;;68.77;46.70;;;;;;;40.90;36.40;100941.03;4914366;29;20436;-81
2023/01/17 06:04:16;;;;;;;66.53;47.10;;;;;;;40.93;36.46;100938.47;4913463;29;20451;-84
2023/01/17 06:06:43;;;;;;;66.23;48.37;;;;;;;40.99;36.31;100948.03;4905096;29;20478;-90
2023/01/17 06:09:13;;;;;;;73.47;51.23;;;;;;;40.94;36.38;100950.16;4898520;29;20701;-92
2023/01/17 06:11:43;;;;;;;81.50;53.23;;;;;;;40.95;36.46;100954.50;4899208;29;20493;-91
2023/01/17 06:14:09;;;;;;;68.23;47.93;;;;;;;40.95;36.31;100952.56;4865596;29;20997;-89
2023/01/17 06:16:35;;;;;;;73.77;48.80;;;;;;;40.94;36.25;100966.47;4866150;29;20545;-82
2023/01/17 06:19:01;;;;;;;72.77;48.30;;;;;;;40.86;36.76;100975.44;4891093;29;21027;-88
2023/01/17 06:21:30;;;;;;;81.67;51.23;;;;;;;40.87;36.89;100979.75;4879284;29;20273;-91
2023/01/17 06:24:18;;;;;;;76.17;52.07;;;;;;;41.00;36.68;100989.66;4864431;29;20451;-93
2023/01/17 06:26:44;;;;;;;78.00;58.10;;;;;;;40.96;36.52;100989.53;4865662;29;20435;-91
2023/01/17 06:29:11;;;;;;;79.53;55.13;;;;;;;40.96;36.48;100994.16;4881151;29;20458;-92
2023/01/17 06:31:41;;;;;;;83.60;56.60;;;;;;;41.00;36.75;101001.34;4866557;29;20923;-93
2023/01/17 06:34:11;;;;;;;68.50;47.67;;;;;;;41.04;36.02;101004.22;4882198;29;20499;-96
2023/01/17 06:36:38;;;;;;;70.37;43.33;;;;;;;41.06;36.30;101004.69;4865385;29;20852;-94
2023/01/17 06:39:13;;;;;;;65.07;47.53;;;;;;;40.98;36.77;101011.75;4880790;29;20828;-94
2023/01/17 06:41:38;;;;;;;69.40;45.80;;;;;;;40.94;36.24;101013.50;4869455;29;20433;-88
2023/01/17 06:44:06;;;;;;;63.90;46.20;;;;;;;40.97;36.43;101014.81;4882548;29;20844;-87
2023/01/17 06:46:32;;;;;;;66.77;44.00;;;;;;;40.98;36.32;101024.56;4880793;29;20193;-91
2023/01/17 06:48:58;;;;;;;71.60;45.30;;;;;;;40.90;36.72;101033.53;4878452;29;20438;-91
2023/01/17 06:51:27;;;;;;;70.20;42.63;;;;;;;40.94;36.27;101042.66;4880026;29;20474;-91
2023/01/17 06:53:55;;;;;;;75.57;46.13;;;;;;;40.90;36.71;101049.84;4847938;29;20611;-88
2023/01/17 06:56:22;;;;;;;84.97;49.77;;;;;;;40.89;36.39;101064.56;4863378;29;20449;-93
2023/01/17 06:58:51;;;;;;;79.67;49.30;;;;;;;40.95;36.60;101068.75;4880450;29;20442;-93
2023/01/17 07:01:21;;;;;;;81.83;51.43;;;;;;;41.00;36.20;101074.00;4880529;29;20949;-91
2023/01/17 07:04:16;;;;;;;86.63;49.37;;;;;;;40.99;36.11;101081.38;4880490;29;20439;-95
2023/01/17 07:06:52;;;;;;;70.63;46.80;;;;;;;40.87;36.58;101094.00;4878418;29;20535;-94
2023/01/17 07:09:34;;;;;;;68.37;44.00;;;;;;;40.85;36.62;101096.25;4849026;29;20959;-95
2023/01/17 07:12:00;;;;;;;73.13;48.40;;;;;;;40.78;36.61;101110.34;4879757;29;21040;-93
2023/01/17 07:14:35;;;;;;;76.53;46.17;;;;;;;40.94;36.33;101108.75;4914137;29;20438;-94
2023/01/17 07:17:03;;;;;;;77.77;52.33;;;;;;;40.93;36.43;101111.78;4899209;29;20432;-93
2023/01/17 07:19:29;;;;;;;75.07;52.83;;;;;;;40.91;36.61;101119.47;4896588;29;20437;-90
2023/01/17 07:21:56;;;;;;;82.77;54.30;;;;;;;40.86;36.50;101125.03;4899664;29;20418;-90
2023/01/17 07:27:13;;;;;;;71.00;47.17;;;;;;;40.74;36.90;101131.91;4897407;29;20426;-90
2023/01/17 07:29:38;;;;;;;64.10;43.93;;;;;;;40.84;36.69;101130.03;4912664;29;20445;-92
2023/01/17 07:32:07;;;;;;;58.57;42.60;;;;;;;40.93;36.13;101136.28;4896875;29;20477;-92
2023/01/17 07:34:36;;;;;;;63.17;44.57;;;;;;;40.71;36.25;101137.22;4914572;29;20453;-93
2023/01/17 07:37:02;;;;;;;60.27;44.37;;;;;;;40.74;36.43;101142.00;4897203;29;20442;-90
2023/01/17 07:39:28;;;;;;;69.80;44.03;;;;;;;40.85;36.12;101146.00;4912736;29;20831;-93
2023/01/17 07:41:56;;;;;;;57.77;44.77;;;;;;;40.88;36.58;101141.84;4897593;29;20441;-92
2023/01/17 07:44:22;;;;;;;59.40;41.40;;;;;;;40.84;36.23;101151.78;4896448;29;20426;-93
2023/01/17 07:46:48;;;;;;;62.63;44.77;;;;;;;40.73;36.47;101148.56;4911678;29;20946;-89
2023/01/17 07:49:26;;;;;;;55.57;42.67;;;;;;;40.55;36.91;101156.69;4896104;29;20526;-89
2023/01/17 07:51:52;;;;;;;50.97;40.17;;;;;;;40.65;36.82;101160.25;4895246;29;20874;-87
2023/01/17 07:54:18;;;;;;;59.90;42.43;;;;;;;40.40;36.62;101157.13;4896891;29;20947;-89
2023/01/17 07:56:45;;;;;;;59.37;41.30;;;;;;;40.48;36.75;101158.28;4912111;29;20444;-92
2023/01/17 07:59:12;;;;;;;57.70;40.43;;;;;;;40.60;36.43;101166.63;4911491;29;20601;-92
2023/01/17 08:01:38;;;;;;;53.13;42.87;;;;;;;40.84;36.11;101170.81;4910455;29;20943;-83
2023/01/17 08:04:04;;;;;;;60.20;42.10;;;;;;;41.01;36.00;101165.41;4894829;29;20437;-81
2023/01/17 08:06:30;;;;;;;59.53;42.87;;;;;;;41.02;35.56;101172.47;4910861;29;20461;-82
2023/01/17 08:08:58;;;;;;;65.37;43.67;;;;;;;41.10;35.66;101166.22;4909992;29;20962;-81
2023/01/17 08:11:24;;;;;;;53.80;40.33;;;;;;;41.15;35.68;101167.97;4895576;29;20482;-81
2023/01/17 08:13:56;;;;;;;54.73;42.50;;;;;;;41.11;35.86;101164.28;4893813;29;20437;-85
2023/01/17 08:16:28;;;;;;;59.07;39.93;;;;;;;41.16;35.61;101173.09;4896594;29;20453;-85
2023/01/17 08:18:55;;;;;;;50.10;37.50;;;;;;;41.07;36.34;101164.13;4905954;29;20425;-88
2023/01/17 08:21:21;;;;;;;65.73;40.67;;;;;;;41.03;35.79;101171.34;4901729;29;20498;-88
2023/01/17 08:23:49;;;;;;;82.47;45.53;;;;;;;40.92;36.60;101168.13;4896291;29;20806;-89
2023/01/17 08:26:21;;;;;;;66.43;42.83;;;;;;;41.08;36.10;101168.47;4901714;29;20453;-87
2023/01/17 08:28:54;;;;;;;67.30;43.80;;;;;;;41.10;36.15;101171.66;4896653;29;20509;-86
2023/01/17 08:31:20;;;;;;;71.27;46.47;;;;;;;41.08;36.46;101179.34;4894811;29;20948;-87
2023/01/17 08:33:46;;;;;;;54.93;44.70;;;;;;;41.05;36.38;101177.25;4909684;29;20466;-84
2023/01/17 08:36:12;;;;;;;77.37;43.60;;;;;;;41.10;36.21;101174.38;4911819;29;20448;-85
2023/01/17 08:38:38;;;;;;;84.33;44.57;;;;;;;41.19;36.51;101166.19;4893005;29;20473;-85
2023/01/17 08:41:04;;;;;;;83.13;49.43;;;;;;;41.24;36.65;101171.47;4896180;29;20456;-85
2023/01/17 08:43:30;;;;;;;70.27;49.23;;;;;;;41.24;35.91;101166.03;4910809;29;20517;-85
2023/01/17 08:45:56;;;;;;;80.37;49.93;;;;;;;41.31;36.53;101163.59;4911779;29;20430;-87
2023/01/17 08:48:23;;;;;;;82.47;48.63;;;;;;;41.36;36.57;101168.91;4894833;29;20434;-85
2023/01/17 08:50:49;;;;;;;60.23;44.00;;;;;;;41.32;36.31;101162.50;4911750;29;20497;-90
2023/01/17 08:53:16;;;;;;;69.87;44.87;;;;;;;41.39;36.04;101172.94;4911538;29;20460;-91
2023/01/17 08:55:43;;;;;;;63.70;44.73;;;;;;;41.40;35.83;101172.59;4895193;29;20434;-86
2023/01/17 08:58:09;;;;;;;73.43;42.27;;;;;;;41.48;35.83;101177.22;4912234;29;20430;-90
2023/01/17 09:00:36;;;;;;;65.90;40.30;;;;;;;41.46;35.61;101179.47;4896755;29;20782;-89
2023/01/17 09:03:02;;;;;;;56.60;41.67;;;;;;;41.46;35.19;101175.97;4911375;29;20341;-86
2023/01/17 09:05:28;;;;;;;71.10;38.10;;;;;;;41.45;35.96;101182.53;4912402;29;20530;-86
2023/01/17 09:07:55;;;;;;;65.00;44.70;;;;;;;41.61;35.80;101175.44;4896104;29;20514;-86
2023/01/17 09:10:22;;;;;;;75.30;45.47;;;;;;;41.83;34.93;101179.91;4908694;29;20430;-82
2023/01/17 09:12:48;;;;;;;60.73;40.47;;;;;;;41.86;35.06;101171.84;4898306;29;20537;-84
2023/01/17 09:15:18;;;;;;;110.13;47.90;;;;;;;41.86;34.80;101179.22;4895808;29;20433;-89
2023/01/17 09:17:46;;;;;;;81.87;43.30;;;;;;;41.96;34.77;101178.09;4894164;29;20429;-81
2023/01/17 09:20:12;;;;;;;64.07;40.27;;;;;;;41.99;34.56;101183.69;4896758;29;20439;-77
2023/01/17 09:22:38;;;;;;;56.60;38.37;;;;;;;41.93;34.45;101178.72;4895082;29;20797;-88
2023/01/17 09:25:05;;;;;;;66.03;40.03;;;;;;;41.85;34.65;101172.97;4895410;29;20938;-83
2023/01/17 09:27:31;;;;;;;67.83;39.23;;;;;;;41.92;34.52;101166.22;4911029;29;20942;-83
2023/01/17 09:29:57;;;;;;;65.23;37.50;;;;;;;41.92;34.42;101182.56;4895576;29;20526;-83
2023/01/17 09:32:23;;;;;;;61.53;41.10;;;;;;;41.74;34.84;101171.75;4910501;29;20978;-78
2023/01/17 09:34:49;;;;;;;61.70;36.70;;;;;;;41.90;34.45;101163.84;4895436;29;20224;-84
2023/01/17 09:37:15;;;;;;;59.97;38.50;;;;;;;42.01;33.98;101169.72;4910673;29;20461;-82
2023/01/17 09:39:41;;;;;;;65.23;41.17;;;;;;;42.10;34.04;101159.56;4896335;29;20205;-83
2023/01/17 09:42:23;;;;;;;66.63;38.80;;;;;;;42.05;34.07;101155.13;4895298;29;20893;-78
2023/01/17 09:44:50;;;;;;;79.30;43.40;;;;;;;42.14;33.98;101158.59;4895004;29;20292;-78
2023/01/17 09:47:35;;;;;;;49.60;34.30;;;;;;;42.16;33.51;101166.47;4898728;29;20434;-79
2023/01/17 09:50:33;;;;;;;53.93;36.23;;;;;;;42.24;33.43;101157.47;4910884;29;20524;-84
2023/01/17 09:53:06;;;;;;;65.47;36.67;;;;;;;42.27;33.56;101156.78;4892385;29;20434;-82
2023/01/17 09:55:42;;;;;;;59.80;38.67;;;;;;;42.02;33.25;101153.03;4911033;29;20437;-88
2023/01/17 09:58:17;;;;;;;69.87;38.67;;;;;;;42.24;33.20;101146.56;4906689;29;20790;-87
2023/01/17 10:01:17;;;;;;;66.17;37.23;;;;;;;42.33;32.63;101152.75;4910859;29;20428;-82
2023/01/17 10:03:58;;;;;;;59.07;37.17;;;;;;;42.34;32.92;101153.53;4880638;29;20458;-83
2023/01/17 10:06:30;;;;;;;52.93;34.67;;;;;;;42.35;32.79;101144.22;4904663;29;20481;-85
2023/01/17 10:09:25;;;;;;;62.20;39.00;;;;;;;42.39;32.46;101156.88;4914388;29;20513;-84
2023/01/17 10:12:15;;;;;;;69.20;38.73;;;;;;;42.51;32.21;101147.97;4898341;29;20493;-86
2023/01/17 10:14:50;;;;;;;58.90;35.47;;;;;;;42.48;31.80;101139.66;4898205;29;20442;-87
2023/01/17 10:17:23;;;;;;;72.70;40.70;;;;;;;42.43;31.71;101143.38;4914480;29;20437;-89
2023/01/17 10:20:08;;;;;;;58.47;37.00;;;;;;;42.43;31.37;101137.13;4898606;29;20493;-89
2023/01/17 10:23:16;;;;;;;71.73;40.40;;;;;;;42.59;31.25;101140.88;4898540;29;20525;-89
2023/01/17 10:25:50;;;;;;;57.90;37.47;;;;;;;42.43;31.25;101140.66;4841680;29;20472;-89
2023/01/17 10:28:45;;;;;;;51.17;35.20;;;;;;;42.38;31.45;101140.84;4841856;29;20440;-89
2023/01/17 10:31:44;;;;;;;56.33;40.17;;;;;;;42.33;31.39;101136.38;4884202;29;20473;-89
2023/01/17 10:34:43;;;;;;;63.83;41.60;;;;;;;42.50;31.01;101131.94;4902692;29;20454;-88
2023/01/17 10:37:36;;;;;;;77.30;34.60;;;;;;;42.67;30.62;101126.41;4885099;29;20431;-90
2023/01/17 10:40:12;;;;;;;60.93;37.80;;;;;;;42.63;30.63;101118.06;4913858;29;20453;-90
2023/01/17 10:43:06;;;;;;;67.30;36.77;;;;;;;42.74;30.88;101115.75;4898332;29;20470;-90
2023/01/17 10:45:42;;;;;;;52.10;37.87;;;;;;;42.91;30.32;101118.31;4878968;29;20440;-89
2023/01/17 10:48:35;;;;;;;57.20;41.30;;;;;;;42.66;29.71;101111.13;4913702;29;20473;-90
2023/01/17 10:51:15;;;;;;;75.90;45.33;;;;;;;42.72;29.50;101106.28;4913941;29;20465;-90
2023/01/17 10:53:56;;;;;;;67.67;38.50;;;;;;;42.74;29.36;101104.84;4898188;29;20442;-90
2023/01/17 10:56:26;;;;;;;53.57;36.67;;;;;;;42.76;28.72;101107.22;4898473;29;20445;-90
2023/01/17 10:59:13;;;;;;;75.70;41.70;;;;;;;42.78;28.59;101104.94;4913817;29;20474;-90
2023/01/17 11:01:40;;;;;;;55.27;38.63;;;;;;;42.83;28.38;101091.91;4913245;29;20475;-90
2023/01/17 11:04:36;;;;;;;58.07;36.70;;;;;;;42.89;28.06;101093.28;4913889;29;20461;-90
2023/01/17 11:07:18;;;;;;;60.30;42.40;;;;;;;43.11;28.21;101086.69;4883191;29;20474;-91
2023/01/17 11:09:49;;;;;;;63.97;42.60;;;;;;;43.04;28.18;101085.66;4897400;29;20516;-90
2023/01/17 11:12:40;;;;;;;60.93;41.77;;;;;;;43.05;28.50;101081.78;4913161;29;20496;-88
2023/01/17 11:15:08;;;;;;;58.87;40.27;;;;;;;43.04;28.07;101075.53;4888009;29;20478;-88
2023/01/17 11:18:04;;;;;;;79.37;43.93;;;;;;;43.11;28.49;101078.50;4896283;29;20438;-88
2023/01/17 11:20:38;;;;;;;58.27;39.40;;;;;;;43.17;27.90;101068.97;4912823;29;20449;-88
2023/01/17 11:23:16;;;;;;;65.97;39.60;;;;;;;43.15;28.05;101071.22;4896901;29;20438;-89
2023/01/17 11:25:56;;;;;;;70.90;40.90;;;;;;;43.16;28.50;101061.13;4895527;29;20425;-90
2023/01/17 11:28:29;;;;;;;73.80;42.43;;;;;;;43.18;27.53;101056.91;4913338;29;20469;-89
2023/01/17 11:31:02;;;;;;;51.73;34.00;;;;;;;43.35;27.52;101052.38;4897032;29;20469;-90
2023/01/17 11:33:56;;;;;;;58.57;39.33;;;;;;;43.43;27.21;101056.97;4909979;29;20966;-91
2023/01/17 11:36:28;;;;;;;60.00;36.60;;;;;;;43.39;26.86;101045.91;4899545;29;20440;-90
2023/01/17 11:39:02;;;;;;;66.67;36.23;;;;;;;43.39;26.67;101040.44;4912764;29;20432;-91
2023/01/17 11:41:35;;;;;;;49.07;33.30;;;;;;;43.38;26.44;101038.84;4897293;29;20558;-91
2023/01/17 11:44:18;;;;;;;45.63;34.33;;;;;;;43.51;26.45;101036.13;4920639;23;20501;-88
2023/01/17 11:46:44;;;;;;;62.27;38.43;;;;;;;43.50;26.36;101031.81;4882566;29;20445;-88
2023/01/17 11:49:23;;;;;;;52.03;35.27;;;;;;;43.49;26.10;101024.75;4878732;29;20439;-90
2023/01/17 11:51:49;;;;;;;76.10;36.47;;;;;;;43.48;29.32;101014.97;4884797;29;20469;-91
2023/01/17 11:54:21;;;;;;;54.73;34.30;;;;;;;43.42;29.85;101015.19;4898581;29;20566;-90
2023/01/17 11:56:47;;;;;;;56.93;34.77;;;;;;;43.51;30.04;101000.63;4896659;29;20966;-90
2023/01/17 11:59:30;;;;;;;52.27;32.87;;;;;;;43.58;29.96;100996.16;4896966;29;20458;-88
2023/01/17 12:02:44;;;;;;;56.60;32.97;;;;;;;43.58;30.31;100996.16;4884566;29;20485;-88
2023/01/17 12:05:52;;;;;;;47.90;30.50;;;;;;;43.57;30.80;100988.31;4881272;29;20465;-85
2023/01/17 12:08:21;;;;;;;58.80;33.47;;;;;;;43.63;30.33;100976.03;4888029;29;20514;-87
2023/01/17 12:11:18;;;;;;;51.90;29.53;;;;;;;43.58;30.64;100966.13;4885322;29;21016;-86
2023/01/17 12:14:14;;;;;;;51.60;31.17;;;;;;;43.58;30.69;100968.06;4924568;29;20426;-86
2023/01/17 12:17:18;;;;;;;70.23;36.13;;;;;;;43.61;30.50;100970.13;4895488;29;20950;-82
2023/01/17 12:19:53;;;;;;;54.60;32.10;;;;;;;43.59;30.58;100965.00;4893303;29;20513;-86
2023/01/17 12:22:41;;;;;;;47.97;29.83;;;;;;;43.63;30.38;100965.09;4887595;29;20449;-82
2023/01/17 12:25:25;;;;;;;60.13;34.20;;;;;;;43.77;30.63;100962.00;4884974;29;20513;-87
2023/01/17 12:28:04;;;;;;;44.27;28.97;;;;;;;43.76;30.41;100955.72;4896149;29;20433;-87
2023/01/17 12:30:41;;;;;;;50.43;30.80;;;;;;;43.75;30.55;100947.88;4895931;29;20452;-86
2023/01/17 12:33:24;;;;;;;43.87;32.50;;;;;;;43.80;30.79;100950.41;4884299;29;20958;-88
2023/01/17 12:36:16;;;;;;;54.43;34.20;;;;;;;43.89;30.67;100943.69;4895617;29;20452;-88
2023/01/17 12:38:46;;;;;;;58.10;31.63;;;;;;;43.86;30.49;100936.16;4872253;29;20447;-89
2023/01/17 12:41:29;;;;;;;44.90;32.73;;;;;;;43.84;30.31;100926.72;4892694;29;20458;-89
2023/01/17 12:43:59;;;;;;;49.60;31.77;;;;;;;43.77;30.11;100923.72;4880600;29;20533;-88
2023/01/17 12:46:27;;;;;;;58.70;30.73;;;;;;;43.88;30.15;100927.59;4880726;29;20511;-88
2023/01/17 12:49:01;;;;;;;50.70;32.03;;;;;;;43.91;30.42;100914.06;4883947;29;20541;-85
2023/01/17 12:51:32;;;;;;;47.10;32.30;;;;;;;43.86;30.68;100918.97;4890415;29;20601;-81
2023/01/17 12:54:01;;;;;;;52.50;32.00;;;;;;;43.91;30.92;100918.72;4899135;29;20487;-85
2023/01/17 12:56:53;;;;;;;48.63;30.77;;;;;;;43.88;30.67;100911.22;4898388;29;20531;-86
2023/01/17 12:59:24;;;;;;;40.53;26.90;;;;;;;43.88;30.70;100912.00;4888442;29;20441;-89
2023/01/17 13:01:57;;;;;;;49.23;29.73;;;;;;;43.90;31.10;100898.00;4883730;29;20476;-91
2023/01/17 13:04:40;;;;;;;50.33;31.30;;;;;;;43.93;31.13;100909.03;4885976;29;20437;-88
2023/01/17 13:07:39;;;;;;;61.37;31.33;;;;;;;43.95;31.31;100895.84;4889866;29;20517;-89
2023/01/17 13:10:17;;;;;;;43.00;27.57;;;;;;;43.98;30.68;100888.88;4896564;29;20437;-88
2023/01/17 13:12:44;;;;;;;50.70;32.10;;;;;;;44.03;30.78;100890.56;4893120;29;20471;-85
2023/01/17 13:15:23;;;;;;;49.70;31.47;;;;;;;44.01;31.23;100890.88;4889027;29;21129;-87